Time,TemperatureF,DewpointF,PressureIn,WindDirection,WindDirectionDegrees,WindSpeedMPH,WindSpeedGustMPH,Humidity,HourlyPrecipIn,Conditions,Clouds,dailyrainin,SoftwareType,DateUTC
2013-03-03 00:01:00,82.0,82.0,29.51,North,0,0.0,0.0,99,0.00,,,0.00,,2013-03-02 14:01:00,
2013-03-03 00:11:00,82.0,82.0,29.51,North,0,0.0,0.0,99,0.00,,,0.00,,2013-03-02 14:11:00,
2013-03-03 00:21:00,82.0,82.0,29.50,NNE,15,0.0,1.0,99,0.00,,,0.00,,2013-03-02 14:21:00,
2013-03-03 00:31:00,81.0,81.0,29.49,NW,324,0.0,1.0,99,0.00,,,0.00,,2013-03-02 14:31:00,
2013-03-03 00:41:00,81.0,81.0,29.49,NW,324,0.0,1.0,99,0.00,,,0.00,,2013-03-02 14:41:00,
2013-03-03 00:52:00,81.0,81.0,29.49,North,1,0.0,1.0,99,0.00,,,0.00,,2013-03-02 14:52:00,
2013-03-03 01:01:00,81.0,81.0,29.49,North,1,0.0,1.0,99,0.00,,,0.00,,2013-03-02 15:01:00,
2013-03-03 01:11:00,81.0,81.0,29.49,North,1,0.0,1.0,99,0.00,,,0.00,,2013-03-02 15:11:00,
2013-03-03 01:21:00,81.0,81.0,29.48,North,350,0.0,1.0,99,0.00,,,0.00,,2013-03-02 15:21:00,
2013-03-03 01:31:00,80.0,80.0,29.46,North,0,0.0,0.0,99,0.00,,,0.00,,2013-03-02 15:31:00,
2013-03-03 01:41:00,80.0,80.0,29.46,North,0,0.0,0.0,99,0.00,,,0.00,,2013-03-02 15:41:00,
2013-03-03 01:51:00,80.0,80.0,29.46,NW,314,0.0,1.0,99,0.00,,,0.00,,2013-03-02 15:51:00,
2013-03-03 02:01:00,81.0,81.0,29.47,North,0,0.0,0.0,99,0.00,,,0.00,,2013-03-02 16:01:00,
2013-03-03 02:11:00,81.0,81.0,29.47,North,0,0.0,0.0,99,0.00,,,0.00,,2013-03-02 16:11:00,
2013-03-03 02:21:00,81.0,81.0,29.47,NE,54,0.0,1.0,99,0.00,,,0.00,,2013-03-02 16:21:00,
2013-03-03 02:31:00,81.0,81.0,29.47,NE,46,0.0,1.0,99,0.00,,,0.00,,2013-03-02 16:31:00,
2013-03-03 02:41:00,81.0,81.0,29.47,NE,46,0.0,1.0,99,0.00,,,0.00,,2013-03-02 16:41:00,
2013-03-03 02:51:00,81.0,81.0,29.47,NE,45,0.0,1.0,99,0.00,,,0.00,,2013-03-02 16:51:00,
2013-03-03 03:01:00,81.0,81.0,29.47,NE,46,0.0,1.0,99,0.00,,,0.00,,2013-03-02 17:01:00,
2013-03-03 03:11:00,81.0,81.0,29.47,NE,46,0.0,1.0,99,0.00,,,0.00,,2013-03-02 17:11:00,
2013-03-03 03:21:00,82.0,82.0,29.47,North,355,0.0,2.0,99,0.00,,,0.00,,2013-03-02 17:21:00,
2013-03-03 03:31:00,82.0,82.0,29.46,ESE,112,0.0,2.0,99,0.00,,,0.00,,2013-03-02 17:31:00,
2013-03-03 03:41:00,82.0,82.0,29.46,ESE,112,0.0,2.0,99,0.00,,,0.00,,2013-03-02 17:41:00,
2013-03-03 03:52:00,81.0,81.0,29.45,NW,314,0.0,2.0,99,0.00,,,0.00,,2013-03-02 17:52:00,
2013-03-03 04:01:00,81.0,81.0,29.45,NE,45,0.0,1.0,99,0.00,,,0.00,,2013-03-02 18:01:00,
2013-03-03 04:11:00,81.0,81.0,29.45,NE,45,0.0,1.0,99,0.00,,,0.00,,2013-03-02 18:11:00,
2013-03-03 04:21:00,81.0,81.0,29.45,NE,45,0.0,1.0,99,0.00,,,0.00,,2013-03-02 18:21:00,
2013-03-03 04:31:00,81.0,81.0,29.46,NW,314,0.0,1.0,99,0.00,,,0.00,,2013-03-02 18:31:00,
2013-03-03 04:41:00,81.0,81.0,29.46,NW,314,0.0,1.0,99,0.00,,,0.00,,2013-03-02 18:41:00,
2013-03-03 04:51:00,81.0,81.0,29.47,NW,314,0.0,1.0,99,0.00,,,0.00,,2013-03-02 18:51:00,
2013-03-03 05:01:00,81.0,81.0,29.48,East,90,0.0,2.0,99,0.00,,,0.00,,2013-03-02 19:01:00,
2013-03-03 05:11:00,81.0,81.0,29.48,East,90,0.0,2.0,99,0.00,,,0.00,,2013-03-02 19:11:00,
2013-03-03 05:21:00,81.0,81.0,29.47,NW,314,0.0,2.0,99,0.00,,,0.00,,2013-03-02 19:21:00,
2013-03-03 05:31:00,81.0,81.0,29.47,NW,314,0.0,2.0,99,0.00,,,0.00,,2013-03-02 19:31:00,
2013-03-03 05:42:00,81.0,81.0,29.47,NW,314,0.0,2.0,99,0.00,,,0.00,,2013-03-02 19:42:00,
2013-03-03 05:51:00,81.0,81.0,29.47,North,353,0.0,2.0,99,0.00,,,0.00,,2013-03-02 19:51:00,
2013-03-03 06:01:00,81.0,81.0,29.47,NW,320,0.0,3.0,99,0.00,,,0.00,,2013-03-02 20:01:00,
2013-03-03 06:11:00,81.0,81.0,29.47,NW,320,0.0,3.0,99,0.00,,,0.00,,2013-03-02 20:11:00,
2013-03-03 06:21:00,81.0,81.0,29.47,NW,326,0.0,2.0,99,0.00,,,0.00,,2013-03-02 20:21:00,
2013-03-03 06:31:00,80.0,80.0,29.47,North,1,0.0,1.0,99,0.00,,,0.00,,2013-03-02 20:31:00,
2013-03-03 06:41:00,80.0,80.0,29.47,North,1,0.0,1.0,99,0.00,,,0.00,,2013-03-02 20:41:00,
2013-03-03 06:52:00,80.0,80.0,29.48,NW,314,0.0,1.0,99,0.00,,,0.00,,2013-03-02 20:52:00,
2013-03-03 07:02:00,80.0,80.0,29.48,NW,314,0.0,1.0,99,0.00,,,0.00,,2013-03-02 21:02:00,
2013-03-03 07:11:00,80.0,80.0,29.48,NW,314,0.0,1.0,99,0.00,,,0.00,,2013-03-02 21:11:00,
2013-03-03 07:21:00,80.0,80.0,29.47,North,0,0.0,0.0,99,0.00,,,0.00,,2013-03-02 21:21:00,
2013-03-03 07:31:00,81.0,81.0,29.48,North,0,0.0,0.0,99,0.00,,,0.00,,2013-03-02 21:31:00,
2013-03-03 07:42:00,81.0,81.0,29.48,North,0,0.0,0.0,99,0.00,,,0.00,,2013-03-02 21:42:00,
2013-03-03 07:52:00,81.0,81.0,29.48,North,1,0.0,1.0,99,0.00,,,0.00,,2013-03-02 21:52:00,
2013-03-03 08:01:00,82.0,82.0,29.49,NW,314,0.0,2.0,99,0.00,,,0.00,,2013-03-02 22:01:00,
2013-03-03 08:11:00,82.0,82.0,29.49,NW,314,0.0,2.0,99,0.00,,,0.00,,2013-03-02 22:11:00,
2013-03-03 08:21:00,83.0,83.0,29.49,NW,314,0.0,2.0,99,0.00,,,0.00,,2013-03-02 22:21:00,
2013-03-03 08:31:00,87.0,87.0,29.51,NW,314,0.0,2.0,99,0.00,,,0.00,,2013-03-02 22:31:00,
2013-03-03 08:42:00,87.0,87.0,29.51,NW,314,0.0,2.0,99,0.00,,,0.00,,2013-03-02 22:42:00,
2013-03-03 08:51:00,89.0,89.0,29.51,NNW,333,0.0,2.0,99,0.00,,,0.00,,2013-03-02 22:51:00,
2013-03-03 09:01:00,93.0,90.0,29.52,ESE,107,1.0,4.0,90,0.00,,,0.00,,2013-03-02 23:01:00,
2013-03-03 11:01:00,97.0,90.0,29.51,SSE,157,0.0,7.0,80,0.00,,,0.00,,2013-03-03 01:01:00,
2013-03-03 11:11:00,97.0,90.0,29.51,SSE,157,0.0,7.0,80,0.00,,,0.00,,2013-03-03 01:11:00,
2013-03-03 11:21:00,97.0,90.0,29.51,SSE,157,0.0,7.0,80,0.00,,,0.00,,2013-03-03 01:21:00,
2013-03-03 11:52:00,94.0,89.0,29.48,South,176,3.0,7.0,86,0.00,,,0.00,,2013-03-03 01:52:00,
2013-03-03 13:21:00,90.0,90.0,29.46,East,82,1.0,5.0,99,0.07,,,0.07,,2013-03-03 03:21:00,
2013-03-03 13:31:00,88.0,88.0,29.44,South,176,1.0,7.0,99,0.08,,,0.08,,2013-03-03 03:31:00,
2013-03-03 13:41:00,88.0,88.0,29.44,South,176,1.0,7.0,99,0.08,,,0.08,,2013-03-03 03:41:00,
2013-03-03 13:52:00,90.0,90.0,29.44,SW,214,1.0,4.0,99,0.08,,,0.08,,2013-03-03 03:52:00,
2013-03-03 15:01:00,98.0,90.0,29.42,SW,215,1.0,8.0,78,0.00,,,0.08,,2013-03-03 05:01:00,
2013-03-03 15:11:00,98.0,90.0,29.42,SW,215,1.0,8.0,78,0.00,,,0.08,,2013-03-03 05:11:00,
2013-03-03 15:21:00,92.0,88.0,29.41,SW,235,1.0,9.0,88,0.00,,,0.08,,2013-03-03 05:21:00,
2013-03-03 15:32:00,92.0,88.0,29.41,SW,235,1.0,9.0,88,0.00,,,0.08,,2013-03-03 05:32:00,
2013-03-03 15:42:00,92.0,88.0,29.41,SW,235,1.0,9.0,88,0.00,,,0.08,,2013-03-03 05:42:00,
2013-03-03 15:52:00,94.0,90.0,29.42,WSW,244,0.0,5.0,88,0.00,,,0.08,,2013-03-03 05:52:00,
2013-03-03 16:01:00,92.0,90.0,29.42,West,270,1.0,4.0,93,0.00,,,0.08,,2013-03-03 06:01:00,
2013-03-03 16:11:00,92.0,90.0,29.42,West,270,1.0,4.0,93,0.00,,,0.08,,2013-03-03 06:11:00,
2013-03-03 16:21:00,89.0,89.0,29.41,NW,314,1.0,4.0,99,0.00,,,0.08,,2013-03-03 06:21:00,
2013-03-03 16:31:00,87.0,87.0,29.42,WNW,303,1.0,4.0,99,0.00,,,0.08,,2013-03-03 06:31:00,
2013-03-03 16:42:00,87.0,87.0,29.42,WNW,303,1.0,4.0,99,0.00,,,0.08,,2013-03-03 06:42:00,
2013-03-03 16:52:00,85.0,85.0,29.42,NW,311,0.0,4.0,99,0.00,,,0.08,,2013-03-03 06:52:00,
2013-03-03 17:01:00,84.0,84.0,29.43,NW,316,2.0,4.0,99,0.00,,,0.08,,2013-03-03 07:01:00,
2013-03-03 17:11:00,84.0,84.0,29.43,NW,316,2.0,4.0,99,0.00,,,0.08,,2013-03-03 07:11:00,
2013-03-03 17:21:00,83.0,83.0,29.43,NW,306,0.0,3.0,99,0.00,,,0.08,,2013-03-03 07:21:00,
2013-03-03 17:31:00,83.0,83.0,29.44,NW,309,0.0,2.0,99,0.00,,,0.08,,2013-03-03 07:31:00,
2013-03-03 17:42:00,83.0,83.0,29.44,NW,309,0.0,2.0,99,0.00,,,0.08,,2013-03-03 07:42:00,
2013-03-03 17:52:00,84.0,84.0,29.44,NW,314,0.0,2.0,99,0.00,,,0.08,,2013-03-03 07:52:00,
2013-03-03 18:01:00,84.0,84.0,29.44,NW,314,0.0,2.0,99,0.00,,,0.08,,2013-03-03 08:01:00,
2013-03-03 18:11:00,84.0,84.0,29.44,NW,314,0.0,2.0,99,0.00,,,0.08,,2013-03-03 08:11:00,
2013-03-03 18:21:00,84.0,84.0,29.45,NW,317,0.0,2.0,99,0.00,,,0.08,,2013-03-03 08:21:00,
2013-03-03 18:31:00,84.0,84.0,29.46,North,356,0.0,2.0,99,0.00,,,0.08,,2013-03-03 08:31:00,
2013-03-03 18:41:00,84.0,84.0,29.46,North,356,0.0,2.0,99,0.00,,,0.08,,2013-03-03 08:41:00,
2013-03-03 18:53:00,83.0,83.0,29.46,NW,314,0.0,1.0,99,0.00,,,0.08,,2013-03-03 08:53:00,
2013-03-03 19:01:00,83.0,83.0,29.47,North,0,0.0,0.0,99,0.00,,,0.08,,2013-03-03 09:01:00,
2013-03-03 19:11:00,83.0,83.0,29.47,North,0,0.0,0.0,99,0.00,,,0.08,,2013-03-03 09:11:00,
2013-03-03 19:21:00,82.0,82.0,29.48,North,0,0.0,0.0,99,0.00,,,0.08,,2013-03-03 09:21:00,
2013-03-03 19:31:00,82.0,82.0,29.49,North,0,0.0,0.0,99,0.00,,,0.08,,2013-03-03 09:31:00,
2013-03-03 19:41:00,82.0,82.0,29.49,North,0,0.0,0.0,99,0.00,,,0.08,,2013-03-03 09:41:00,
2013-03-03 19:51:00,82.0,82.0,29.51,NE,45,0.0,1.0,99,0.06,,,0.14,,2013-03-03 09:51:00,
2013-03-03 20:01:00,81.0,81.0,29.52,NE,45,0.0,2.0,99,0.08,,,0.17,,2013-03-03 10:01:00,
2013-03-03 20:11:00,81.0,81.0,29.52,NE,45,0.0,2.0,99,0.08,,,0.17,,2013-03-03 10:11:00,
2013-03-03 20:21:00,79.0,79.0,29.53,ENE,74,0.0,3.0,99,0.15,,,0.24,,2013-03-03 10:21:00,
2013-03-03 20:31:00,79.0,79.0,29.53,ENE,74,0.0,3.0,99,0.15,,,0.24,,2013-03-03 10:31:00,
2013-03-03 20:41:00,79.0,79.0,29.53,ENE,74,0.0,3.0,99,0.15,,,0.24,,2013-03-03 10:41:00,
2013-03-03 20:52:00,77.0,77.0,29.54,ESE,114,0.0,2.0,99,0.27,,,0.41,,2013-03-03 10:52:00,
2013-03-03 21:01:00,77.0,77.0,29.53,SE,135,0.0,2.0,99,0.26,,,0.44,,2013-03-03 11:01:00,
2013-03-03 21:11:00,77.0,77.0,29.53,SE,135,0.0,2.0,99,0.26,,,0.44,,2013-03-03 11:11:00,
2013-03-03 21:21:00,78.0,78.0,29.55,North,1,0.0,1.0,99,0.20,,,0.44,,2013-03-03 11:21:00,
2013-03-03 21:31:00,78.0,78.0,29.56,North,1,0.0,1.0,99,0.17,,,0.45,,2013-03-03 11:31:00,
2013-03-03 21:41:00,78.0,78.0,29.56,North,1,0.0,1.0,99,0.17,,,0.45,,2013-03-03 11:41:00,
2013-03-03 21:52:00,77.0,77.0,29.57,SE,124,0.0,2.0,99,0.13,,,0.46,,2013-03-03 11:52:00,
2013-03-03 22:01:00,77.0,77.0,29.57,SE,124,0.0,2.0,99,0.13,,,0.46,,2013-03-03 12:01:00,
2013-03-03 22:11:00,77.0,77.0,29.57,SE,124,0.0,2.0,99,0.13,,,0.46,,2013-03-03 12:11:00,
2013-03-03 22:21:00,77.0,77.0,29.56,NE,45,0.0,1.0,99,0.09,,,0.53,,2013-03-03 12:21:00,
2013-03-03 22:32:00,77.0,77.0,29.56,NE,45,0.0,1.0,99,0.09,,,0.53,,2013-03-03 12:32:00,
2013-03-03 22:42:00,77.0,77.0,29.56,NE,45,0.0,1.0,99,0.09,,,0.53,,2013-03-03 12:42:00,
2013-03-03 22:52:00,77.0,77.0,29.54,North,351,0.0,1.0,99,0.13,,,0.60,,2013-03-03 12:52:00,
2013-03-03 23:01:00,77.0,77.0,29.55,North,0,0.0,0.0,99,0.13,,,0.64,,2013-03-03 13:01:00,
2013-03-03 23:11:00,77.0,77.0,29.55,North,0,0.0,0.0,99,0.13,,,0.64,,2013-03-03 13:11:00,
2013-03-03 23:21:00,78.0,78.0,29.56,East,99,0.0,2.0,99,0.15,,,0.70,,2013-03-03 13:21:00,
2013-03-03 23:31:00,78.0,78.0,29.56,East,99,0.0,2.0,99,0.15,,,0.70,,2013-03-03 13:31:00,
2013-03-03 23:41:00,78.0,78.0,29.56,East,99,0.0,2.0,99,0.15,,,0.70,,2013-03-03 13:41:00,
2013-03-03 23:52:00,78.0,78.0,29.56,NNE,26,0.0,2.0,99,0.17,,,0.78,,2013-03-03 13:52:00,